createdAt,value
2019-03-16T00:00:25.251Z,989.99
2019-03-16T00:03:55.318Z,989.86
2019-03-16T00:07:32.814Z,989.79
2019-03-16T00:11:03.487Z,989.65
2019-03-16T00:14:33.577Z,989.83
2019-03-16T00:18:03.731Z,990
2019-03-16T00:21:33.764Z,990.1
2019-03-16T00:25:03.977Z,990.43
2019-03-16T00:28:34.949Z,990.43
2019-03-16T00:32:13.442Z,990.62
2019-03-16T00:35:44.023Z,990.83
2019-03-16T00:39:14.032Z,990.92
2019-03-16T00:42:44.380Z,990.9
2019-03-16T00:46:14.525Z,990.92
2019-03-16T00:49:44.619Z,990.88
2019-03-16T00:53:14.802Z,990.91
2019-03-16T00:56:44.935Z,991.02
2019-03-16T01:00:15.398Z,991.26
2019-03-16T01:03:45.521Z,991.02
2019-03-16T01:07:15.554Z,990.3
2019-03-16T01:10:45.597Z,989.59
2019-03-16T01:14:15.670Z,989.21
2019-03-16T01:17:45.654Z,989.35
2019-03-16T01:21:15.787Z,989.74
2019-03-16T01:24:45.922Z,989.86
2019-03-16T01:28:16.023Z,990.08
2019-03-16T01:31:46.276Z,989.94
2019-03-16T01:35:16.249Z,988.95
2019-03-16T01:38:46.292Z,987.8
2019-03-16T01:42:16.359Z,987.04
2019-03-16T01:45:46.509Z,986.36
2019-03-16T01:49:16.592Z,985.41
2019-03-16T01:52:46.640Z,985.4
2019-03-16T01:56:16.668Z,985.17
2019-03-16T01:59:46.793Z,984.33
2019-03-16T02:00:16.402Z,984.26
2019-03-16T02:03:46.656Z,983.3
2019-03-16T02:07:16.678Z,983.35
2019-03-16T02:10:46.652Z,984.19
2019-03-16T02:14:16.764Z,984.95
2019-03-16T02:17:46.716Z,985.92
2019-03-16T02:21:16.990Z,986.43
2019-03-16T02:24:47.026Z,985.27
2019-03-16T02:28:17.136Z,984.75
2019-03-16T02:31:47.419Z,983.82
2019-03-16T02:35:17.534Z,983.08
2019-03-16T02:38:47.627Z,982.55
2019-03-16T02:42:17.729Z,982.21
2019-03-16T02:45:47.852Z,982.13
2019-03-16T02:49:17.995Z,982.03
2019-03-16T02:52:50.018Z,982.08
2019-03-16T02:56:20.332Z,982.17
2019-03-16T02:59:50.174Z,981.86
2019-03-16T03:03:29.527Z,981.64
2019-03-16T03:07:00.331Z,981.5
2019-03-16T03:10:30.333Z,981.28
2019-03-16T03:14:00.326Z,981.43
2019-03-16T03:17:30.376Z,981.19
2019-03-16T03:21:00.382Z,981.09
2019-03-16T03:24:30.456Z,980.97
2019-03-16T03:28:00.460Z,980.67
2019-03-16T03:31:30.607Z,980.49
2019-03-16T03:35:01.713Z,980.46
2019-03-16T03:38:31.810Z,980.27
2019-03-16T03:42:01.809Z,980.19
2019-03-16T03:45:31.941Z,980.18
2019-03-16T03:49:02.060Z,979.97
2019-03-16T03:52:32.117Z,979.9
2019-03-16T03:56:02.190Z,979.97
2019-03-16T03:59:32.346Z,979.99
2019-03-16T04:00:16.511Z,980.04
2019-03-16T04:03:46.623Z,980.03
2019-03-16T04:07:20.059Z,979.88
2019-03-16T04:10:50.739Z,979.8
2019-03-16T04:14:20.796Z,979.67
2019-03-16T04:17:50.873Z,979.6
2019-03-16T04:21:21.074Z,979.72
2019-03-16T04:24:51.227Z,979.75
2019-03-16T04:28:21.248Z,979.67
2019-03-16T04:31:51.230Z,979.71
2019-03-16T04:35:22.272Z,979.76
2019-03-16T04:38:52.395Z,979.68
2019-03-16T04:42:22.527Z,979.9
2019-03-16T04:45:52.624Z,979.84
2019-03-16T04:49:22.687Z,980.17
2019-03-16T04:52:52.674Z,980.22
2019-03-16T04:56:22.742Z,980.49
2019-03-16T04:59:52.777Z,981.03
2019-03-16T05:03:22.844Z,981.68
2019-03-16T05:06:52.826Z,982.13
2019-03-16T05:10:22.854Z,982.77
2019-03-16T05:13:52.947Z,983.17
2019-03-16T05:17:23.018Z,983.34
2019-03-16T05:20:53.000Z,983.6
2019-03-16T05:24:23.194Z,984
2019-03-16T05:27:53.211Z,983.93
2019-03-16T05:31:23.289Z,984.69
2019-03-16T05:34:56.696Z,985.41
2019-03-16T05:38:27.111Z,985.95
2019-03-16T05:41:57.103Z,986.3
2019-03-16T05:45:27.186Z,986.36
2019-03-16T05:48:57.098Z,986.49
2019-03-16T05:52:27.210Z,987.31
2019-03-16T05:55:57.181Z,987.68
2019-03-16T05:59:27.184Z,987.99
2019-03-16T06:00:16.798Z,988.2
2019-03-16T06:03:46.767Z,988.59
2019-03-16T06:07:16.820Z,989.29
2019-03-16T06:10:46.816Z,989.97
2019-03-16T06:14:16.903Z,990.36
2019-03-16T06:17:46.936Z,991.05
2019-03-16T06:21:17.028Z,991.05
2019-03-16T06:24:47.150Z,991.84
2019-03-16T06:28:17.162Z,992.36
2019-03-16T06:31:47.184Z,992.43
2019-03-16T06:35:24.415Z,993.06
2019-03-16T06:38:57.369Z,992.71
2019-03-16T06:42:27.481Z,993.05
2019-03-16T06:45:57.513Z,993.75
2019-03-16T06:49:27.586Z,994.73
2019-03-16T06:52:57.685Z,995.5
2019-03-16T06:56:27.643Z,996.14
2019-03-16T06:59:57.563Z,996.85
2019-03-16T07:03:27.665Z,997.67
2019-03-16T07:06:57.727Z,998.54
2019-03-16T07:10:27.739Z,999.35
2019-03-16T07:13:57.768Z,999.79
2019-03-16T07:17:27.839Z,1000.61
2019-03-16T07:20:57.967Z,1001.43
2019-03-16T07:24:28.059Z,1001.78
2019-03-16T07:27:58.091Z,1001.91
2019-03-16T07:31:28.164Z,1002.22
2019-03-16T07:34:58.277Z,1002.76
2019-03-16T07:38:28.308Z,1003.47
2019-03-16T07:42:00.640Z,1003.8
2019-03-16T07:45:30.963Z,1003.84
2019-03-16T07:49:00.936Z,1004.67
2019-03-16T07:52:31.169Z,1005.42
2019-03-16T07:56:01.351Z,1006.54
2019-03-16T07:59:31.513Z,1007.17
2019-03-16T08:00:16.204Z,1007.11
2019-03-16T08:03:46.200Z,1007.11
2019-03-16T08:07:16.305Z,1006.55
2019-03-16T08:10:46.298Z,1006.99
2019-03-16T08:14:16.503Z,1007.17
2019-03-16T08:17:46.512Z,1006.74
2019-03-16T08:21:16.672Z,1006.06
2019-03-16T08:24:46.766Z,1005.68
2019-03-16T08:28:16.881Z,1007.28
2019-03-16T08:31:46.931Z,1009.22
2019-03-16T08:35:17.202Z,1010.3
2019-03-16T08:38:47.268Z,1011.42
2019-03-16T08:42:17.456Z,1012.03
2019-03-16T08:45:47.489Z,1012.16
2019-03-16T08:49:17.501Z,1012.2
2019-03-16T08:52:47.575Z,1012
2019-03-16T08:56:17.598Z,1012.24
2019-03-16T08:59:47.620Z,1012.78
2019-03-16T09:03:17.746Z,1012.47
2019-03-16T09:06:47.856Z,1013.59
2019-03-16T09:10:17.951Z,1014.39
2019-03-16T09:13:48.014Z,1014.01
2019-03-16T09:17:18.064Z,1014.25
2019-03-16T09:20:48.086Z,1014.72
2019-03-16T09:24:18.079Z,1015.17
2019-03-16T09:27:48.063Z,1014.56
2019-03-16T09:31:18.126Z,1014.48
2019-03-16T09:34:48.191Z,1014.51
2019-03-16T09:38:18.302Z,1015.01
2019-03-16T09:41:48.314Z,1015.09
2019-03-16T09:45:19.427Z,1015.37
2019-03-16T09:48:49.401Z,1015.75
2019-03-16T09:52:19.453Z,1015.97
2019-03-16T09:55:49.536Z,1016.19
2019-03-16T09:59:19.688Z,1016.98
2019-03-16T10:00:16.319Z,1017.69
2019-03-16T10:03:46.382Z,1017.58
2019-03-16T10:07:16.427Z,1018.37
2019-03-16T10:10:46.448Z,1018.82
2019-03-16T10:14:16.562Z,1019.93
2019-03-16T10:17:46.644Z,1021.2
2019-03-16T10:21:18.856Z,1021.05
2019-03-16T10:24:49.110Z,1020.53
2019-03-16T10:28:19.154Z,1021.66
2019-03-16T10:31:49.121Z,1023.12
2019-03-16T10:35:19.139Z,1022.88
2019-03-16T10:38:49.113Z,1021.87
2019-03-16T10:42:19.245Z,1023.75
2019-03-16T10:45:50.211Z,1025.38
2019-03-16T10:49:20.301Z,1024.86
2019-03-16T10:52:50.353Z,1024.01
2019-03-16T10:56:20.478Z,1024.5
2019-03-16T10:59:50.501Z,1024.86
2019-03-16T11:03:20.569Z,1025.12
2019-03-16T11:06:50.539Z,1025.74
2019-03-16T11:10:20.591Z,1026.83
2019-03-16T11:13:50.662Z,1027.2
2019-03-16T11:17:20.714Z,1026.39
2019-03-16T11:20:50.778Z,1026.6
2019-03-16T11:24:20.904Z,1025.75
2019-03-16T11:27:51.117Z,1027.54
2019-03-16T11:31:21.188Z,1028.72
2019-03-16T11:34:51.261Z,1029.21
2019-03-16T11:38:21.405Z,1028.32
2019-03-16T11:41:51.551Z,1029.46
2019-03-16T11:45:21.796Z,1029.36
2019-03-16T11:48:52.774Z,1030.19
2019-03-16T11:52:22.936Z,1029.41
2019-03-16T11:55:54.427Z,1028.89
2019-03-16T11:59:24.784Z,1028.68
2019-03-16T12:00:16.414Z,1028.86
2019-03-16T12:03:46.469Z,1027.9
2019-03-16T12:07:16.533Z,1027.89
2019-03-16T12:10:46.582Z,1028.17
2019-03-16T12:14:16.654Z,1028.18
2019-03-16T12:17:46.799Z,1028.2
2019-03-16T12:21:16.895Z,1026.42
2019-03-16T12:24:47.063Z,1027.29
2019-03-16T12:28:17.135Z,1024.9
2019-03-16T12:31:47.095Z,1023.27
2019-03-16T12:35:17.185Z,1023.54
2019-03-16T12:38:47.250Z,1022.58
2019-03-16T12:42:17.306Z,1022.78
2019-03-16T12:45:47.371Z,1024.95
2019-03-16T12:49:18.357Z,1026.31
2019-03-16T12:52:48.371Z,1024.94
2019-03-16T12:56:18.467Z,1023.77
2019-03-16T12:59:48.453Z,1024.92
2019-03-16T13:03:18.679Z,1025.85
2019-03-16T13:06:48.792Z,1025.17
2019-03-16T13:10:18.937Z,1023.97
2019-03-16T13:13:49.072Z,1024.6
2019-03-16T13:17:19.108Z,1024.79
2019-03-16T13:20:49.193Z,1025.36
2019-03-16T13:24:19.261Z,1026.46
2019-03-16T13:27:49.214Z,1026.55
2019-03-16T13:31:19.323Z,1025.74
2019-03-16T13:34:49.369Z,1025.25
2019-03-16T13:38:19.449Z,1024.94
2019-03-16T13:41:49.514Z,1024.41
2019-03-16T13:45:19.689Z,1024.23
2019-03-16T13:48:49.715Z,1024.94
2019-03-16T13:52:20.969Z,1025.41
2019-03-16T13:55:50.985Z,1025.81
2019-03-16T13:59:21.110Z,1025.83
2019-03-16T14:00:16.309Z,1026.19
2019-03-16T14:03:46.414Z,1026.63
2019-03-16T14:07:16.719Z,1027.14
2019-03-16T14:10:46.754Z,1027.49
2019-03-16T14:14:17.120Z,1027.67
2019-03-16T14:17:47.185Z,1028.6
2019-03-16T14:21:17.500Z,1029.17
2019-03-16T14:24:47.535Z,1029.86
2019-03-16T14:28:17.611Z,1029.88
2019-03-16T14:31:47.675Z,1030.17
2019-03-16T14:35:17.811Z,1030.69
2019-03-16T14:38:47.916Z,1030.53
2019-03-16T14:42:18.020Z,1030.17
2019-03-16T14:45:49.143Z,1029.37
2019-03-16T14:49:19.315Z,1027.92
2019-03-16T14:52:51.053Z,1026.23
2019-03-16T14:56:21.152Z,1025.5
2019-03-16T14:59:51.178Z,1025.29
2019-03-16T15:03:21.415Z,1023.87
2019-03-16T15:06:51.388Z,1023.08
2019-03-16T15:10:21.363Z,1023.35
2019-03-16T15:13:51.399Z,1023.34
2019-03-16T15:17:21.453Z,1023.34
2019-03-16T15:20:51.529Z,1023.75
2019-03-16T15:24:21.674Z,1023.54
2019-03-16T15:27:51.763Z,1024.06
2019-03-16T15:31:22.832Z,1024.08
2019-03-16T15:34:52.910Z,1024.07
2019-03-16T15:38:22.951Z,1023.75
2019-03-16T15:41:53.020Z,1023.59
2019-03-16T15:45:23.165Z,1023.77
2019-03-16T15:48:53.322Z,1023.89
2019-03-16T15:52:23.529Z,1023.88
2019-03-16T15:55:54.562Z,1023.8
2019-03-16T15:59:24.746Z,1023.61
2019-03-16T16:00:16.335Z,1023.39
2019-03-16T16:03:46.430Z,1023.16
2019-03-16T16:07:16.695Z,1022.65
2019-03-16T16:10:59.730Z,1022.95
2019-03-16T16:14:31.225Z,1022.54
2019-03-16T16:18:01.242Z,1022.6
2019-03-16T16:21:31.365Z,1022.64
2019-03-16T16:25:01.560Z,1022.29
2019-03-16T16:28:31.675Z,1022.28
2019-03-16T16:32:01.771Z,1022.25
2019-03-16T16:35:31.876Z,1021.94
2019-03-16T16:39:02.725Z,1021.71
2019-03-16T16:42:32.895Z,1021.49
2019-03-16T16:46:02.982Z,1021.55
2019-03-16T16:49:33.046Z,1021.41
2019-03-16T16:53:03.171Z,1021
2019-03-16T16:56:34.098Z,1020.78
2019-03-16T17:00:06.262Z,1020.47
2019-03-16T17:03:36.333Z,1020.51
2019-03-16T17:07:06.322Z,1020.57
2019-03-16T17:10:36.377Z,1020.48
2019-03-16T17:14:06.542Z,1020.41
2019-03-16T17:17:36.561Z,1020.32
2019-03-16T17:21:06.632Z,1020.05
2019-03-16T17:24:36.735Z,1020
2019-03-16T17:28:06.662Z,1019.78
2019-03-16T17:31:42.076Z,1019.73
2019-03-16T17:35:12.812Z,1019.62
2019-03-16T17:38:42.867Z,1019.28
2019-03-16T17:42:12.963Z,1019.05
2019-03-16T17:45:43.068Z,1018.73
2019-03-16T17:49:13.143Z,1019.05
2019-03-16T17:52:43.198Z,1019.67
2019-03-16T17:56:13.222Z,1020.54
2019-03-16T17:59:43.368Z,1021.21
2019-03-16T18:00:16.188Z,1021.21
2019-03-16T18:03:46.302Z,1021.9
2019-03-16T18:07:16.562Z,1022.23
2019-03-16T18:10:46.532Z,1022.36
2019-03-16T18:14:16.568Z,1022.38
2019-03-16T18:17:46.694Z,1022.42
2019-03-16T18:21:16.738Z,1022.14
2019-03-16T18:24:46.747Z,1022.22
2019-03-16T18:28:16.968Z,1022.14
2019-03-16T18:31:46.994Z,1022.12
2019-03-16T18:35:17.088Z,1022.18
2019-03-16T18:38:47.204Z,1021.93
2019-03-16T18:42:17.389Z,1021.83
2019-03-16T18:45:47.394Z,1021.72
2019-03-16T18:49:17.404Z,1021.87
2019-03-16T18:52:47.430Z,1022.14
2019-03-16T18:56:17.425Z,1022.04
2019-03-16T18:59:48.416Z,1022.06
2019-03-16T19:03:18.640Z,1022.15
2019-03-16T19:06:48.736Z,1022.11
2019-03-16T19:10:18.891Z,1021.99
2019-03-16T19:13:49.035Z,1022.18
2019-03-16T19:17:19.160Z,1022.01
2019-03-16T19:20:49.235Z,1021.99
2019-03-16T19:24:19.260Z,1022.22
2019-03-16T19:27:49.382Z,1022.27
2019-03-16T19:31:19.461Z,1022.25
2019-03-16T19:34:49.435Z,1022.57
2019-03-16T19:38:19.436Z,1022.68
2019-03-16T19:41:49.476Z,1022.68
2019-03-16T19:45:19.641Z,1022.58
2019-03-16T19:48:49.667Z,1022.56
2019-03-16T19:52:19.721Z,1022.15
2019-03-16T19:55:49.805Z,1022.13
2019-03-16T19:59:19.902Z,1021.9
2019-03-16T20:00:17.152Z,1021.8
2019-03-16T20:03:47.135Z,1021.64
2019-03-16T20:07:19.429Z,1021.3
2019-03-16T20:10:49.762Z,1021.15
2019-03-16T20:14:19.981Z,1021.4
2019-03-16T20:17:50.189Z,1021.09
2019-03-16T20:21:20.261Z,1020.68
2019-03-16T20:24:50.266Z,1020.18
2019-03-16T20:28:20.431Z,1020.14
2019-03-16T20:31:50.527Z,1020.06
2019-03-16T20:35:20.716Z,1019.63
2019-03-16T20:38:50.859Z,1019.52
2019-03-16T20:42:20.939Z,1019.86
2019-03-16T20:45:51.040Z,1019.67
2019-03-16T20:49:21.131Z,1019.61
2019-03-16T20:52:51.148Z,1019.27
2019-03-16T20:56:21.294Z,1018.71
2019-03-16T20:59:51.419Z,1018.46
2019-03-16T21:03:21.684Z,1017.7
2019-03-16T21:06:51.748Z,1015
2019-03-16T21:10:21.886Z,1011.88
2019-03-16T21:13:51.917Z,1010.01
2019-03-16T21:17:22.076Z,1008.96
2019-03-16T21:20:52.188Z,1008.24
2019-03-16T21:24:22.231Z,1008
2019-03-16T21:27:52.208Z,1007.81
2019-03-16T21:31:22.309Z,1007.4
2019-03-16T21:34:52.384Z,1006.25
2019-03-16T21:38:22.500Z,1005.4
2019-03-16T21:41:52.512Z,1004.57
2019-03-16T21:45:22.608Z,1003.92
2019-03-16T21:48:52.671Z,1003.58
2019-03-16T21:52:22.805Z,1003.38
2019-03-16T21:55:52.850Z,1003.59
2019-03-16T21:59:22.859Z,1003.7
2019-03-16T22:00:16.450Z,1003.69
2019-03-16T22:03:47.549Z,1003.81
2019-03-16T22:07:17.721Z,1003.66
2019-03-16T22:10:47.876Z,1003.68
2019-03-16T22:14:18.120Z,1004.04
2019-03-16T22:17:48.145Z,1004.39
2019-03-16T22:21:18.191Z,1004.41
2019-03-16T22:24:48.304Z,1004.54
2019-03-16T22:28:18.468Z,1004.69
2019-03-16T22:31:48.424Z,1004.6
2019-03-16T22:35:18.355Z,1004.79
2019-03-16T22:38:48.352Z,1004.76
2019-03-16T22:42:18.495Z,1004.69
2019-03-16T22:45:48.470Z,1004.78
2019-03-16T22:49:18.534Z,1004.33
2019-03-16T22:52:48.628Z,1003.86
2019-03-16T22:56:18.686Z,1003.37
2019-03-16T22:59:48.647Z,1002.96
2019-03-16T23:03:18.791Z,1002.72
2019-03-16T23:06:49.836Z,1002.75
2019-03-16T23:10:19.993Z,1002.72
2019-03-16T23:13:50.094Z,1002.59
2019-03-16T23:17:20.143Z,1002.77
2019-03-16T23:20:50.223Z,1003.37
2019-03-16T23:24:20.300Z,1004.1
2019-03-16T23:27:50.412Z,1004.59
2019-03-16T23:31:20.486Z,1003.73
2019-03-16T23:34:50.635Z,1003.75
2019-03-16T23:38:20.754Z,1003.71
2019-03-16T23:41:50.849Z,1004.09
2019-03-16T23:45:20.944Z,1003.06
2019-03-16T23:48:50.978Z,1002.38
2019-03-16T23:52:21.044Z,1002.43
2019-03-16T23:55:51.106Z,1002.34
2019-03-16T23:59:21.173Z,1002.34
